Current Weather

Tcnl Rafael Pabon

Tcnl Rafael Pabon, Bolivia (SLVM)

Report from: Friday, February 3, 2023 2:00 PM -04
Current time: Sunday, February 5, 2023 12:59 AM -04

Nearby weather
Weather history
Weather forecast

Temperature33.0°C (91.4°F)
Heat index34.6°C (94.3°F)
Dew point19.0°C (66.2°F)
Winds 7 kts (3.6 m/s, 8.1 mph) South (180°)
Visibility6.2 mi. (10 km)
Clouds Scattered clouds 2,500 ft. (762 m)
Altimeter29.94 in.Hg (1014 mB)
Relative humidity44 %
Density altitude2,324 ft. (708 m)
Flight conditions Visual Meteorological Conditions
Raw dataSLVM 031800Z 18007KT 9999 SCT025 33/19 Q1014
An unhandled exception has occurred. See browser dev tools for details. Reload 🗙